Time;durP1;ratioP1;P1;durP2;ratioP2;P2;SDS_P1;SDS_P2;PMS_P1;PMS_P2;Temp;Humidity;BMP_temperature;BMP_pressure;BME280_temperature;BME280_humidity;BME280_pressure;Samples;Min_cycle;Max_cycle;Signal;HPM_P1;HPM_P2
2021/08/02 00:01:30;;;;;;;6.03;2.85;;;;;;;17.56;89.62;99478.09;5055458;28;20049;-77
2021/08/02 00:04:03;;;;;;;4.93;2.72;;;;;;;17.67;89.17;99469.78;5054482;28;20053;-77
2021/08/02 00:06:43;;;;;;;5.45;2.70;;;;;;;17.66;88.83;99476.19;5055306;28;20476;-77
2021/08/02 00:09:15;;;;;;;6.47;2.70;;;;;;;17.67;88.92;99482.41;5055267;28;20033;-78
2021/08/02 00:11:46;;;;;;;5.82;2.78;;;;;;;17.64;88.83;99483.56;5054470;28;20446;-77
2021/08/02 00:14:16;;;;;;;4.90;2.70;;;;;;;17.65;88.80;99485.25;5054887;28;20045;-78
2021/08/02 00:16:45;;;;;;;6.97;2.83;;;;;;;17.59;89.59;99490.44;5054371;28;20100;-78
2021/08/02 00:19:13;;;;;;;4.00;2.67;;;;;;;17.58;89.02;99488.75;5054735;28;20048;-78
2021/08/02 00:21:43;;;;;;;4.80;2.92;;;;;;;17.64;88.83;99486.25;5054432;28;20124;-78
2021/08/02 00:24:11;;;;;;;3.13;2.22;;;;;;;17.61;88.89;99494.66;5054520;28;20044;-77
2021/08/02 00:26:41;;;;;;;6.25;2.85;;;;;;;17.55;88.71;99492.56;5053962;28;20056;-77
2021/08/02 00:29:09;;;;;;;3.95;2.60;;;;;;;17.54;89.15;99504.38;5054661;28;20036;-75
2021/08/02 00:31:38;;;;;;;4.00;2.60;;;;;;;17.54;89.22;99517.84;5054073;28;20051;-76
2021/08/02 00:34:06;;;;;;;3.97;2.70;;;;;;;17.55;88.74;99516.84;5054436;28;20068;-76
2021/08/02 00:36:40;;;;;;;7.45;3.00;;;;;;;17.52;88.63;99511.78;5054016;28;20045;-77
2021/08/02 00:39:20;;;;;;;4.43;2.60;;;;;;;17.49;88.89;99512.09;5054409;28;20052;-76
2021/08/02 00:42:39;;;;;;;4.50;2.65;;;;;;;17.45;88.78;99497.19;5054143;28;20041;-80
2021/08/02 00:45:12;;;;;;;7.05;2.88;;;;;;;17.50;88.33;99502.16;5029427;28;20060;-84
2021/08/02 00:47:45;;;;;;;6.03;2.80;;;;;;;17.40;89.07;99499.53;5054149;28;20492;-84
2021/08/02 00:50:17;;;;;;;5.05;2.80;;;;;;;17.34;88.95;99500.13;5054282;28;20051;-84
2021/08/02 00:52:51;;;;;;;4.68;2.85;;;;;;;17.35;89.01;99504.53;5053960;28;20095;-79
2021/08/02 00:55:21;;;;;;;5.65;3.10;;;;;;;17.30;89.57;99496.06;5054270;28;20041;-81
2021/08/02 00:57:50;;;;;;;5.32;2.60;;;;;;;17.26;89.62;99500.06;5053878;28;20041;-78
2021/08/02 01:00:20;;;;;;;6.53;2.50;;;;;;;17.32;89.58;99507.53;5053953;28;20094;-78
2021/08/02 01:02:51;;;;;;;4.35;2.40;;;;;;;17.37;89.25;99497.13;5053574;28;20056;-78
2021/08/02 01:05:21;;;;;;;5.10;2.58;;;;;;;17.37;88.96;99507.91;5053798;28;20110;-78
2021/08/02 01:07:56;;;;;;;4.53;2.53;;;;;;;17.34;89.30;99508.22;5053446;28;20404;-78
2021/08/02 01:10:27;;;;;;;4.00;2.58;;;;;;;17.33;89.17;99501.13;5054004;28;20415;-77
2021/08/02 01:13:01;;;;;;;4.97;2.70;;;;;;;17.16;90.45;99517.13;5053345;28;20040;-74
2021/08/02 01:15:30;;;;;;;4.55;2.75;;;;;;;17.12;90.79;99507.66;5053988;28;20041;-74
2021/08/02 01:17:59;;;;;;;4.93;3.03;;;;;;;17.15;90.96;99509.22;5053117;28;20037;-75
2021/08/02 01:20:32;;;;;;;5.10;2.67;;;;;;;17.12;90.84;99523.00;5053519;28;20041;-75
2021/08/02 01:23:04;;;;;;;4.93;2.90;;;;;;;17.12;90.72;99526.53;5053390;28;20063;-74
2021/08/02 01:26:08;;;;;;;5.00;2.67;;;;;;;17.19;90.65;99523.25;5053662;28;20049;-74
2021/08/02 01:29:10;;;;;;;6.93;2.83;;;;;;;17.08;91.08;99519.75;5053164;28;20554;-75
2021/08/02 01:31:38;;;;;;;5.18;2.67;;;;;;;16.99;92.24;99520.66;5028552;28;20178;-76
2021/08/02 01:34:07;;;;;;;4.47;2.60;;;;;;;16.98;92.18;99518.94;5053373;28;20095;-80
2021/08/02 01:36:35;;;;;;;4.85;3.00;;;;;;;17.01;92.18;99515.97;5053160;28;20049;-80
2021/08/02 01:39:05;;;;;;;4.97;2.95;;;;;;;17.04;91.87;99512.13;5052638;28;20048;-80
2021/08/02 01:41:33;;;;;;;7.50;2.88;;;;;;;16.98;91.70;99508.16;5053121;28;20124;-80
2021/08/02 01:44:01;;;;;;;4.32;2.97;;;;;;;17.01;91.49;99515.13;5052935;28;20451;-75
2021/08/02 01:46:39;;;;;;;3.50;2.35;;;;;;;17.02;91.36;99514.13;5053184;28;20041;-76
2021/08/02 01:49:21;;;;;;;3.80;2.80;;;;;;;16.94;92.07;99511.31;5053103;28;20098;-77
2021/08/02 01:51:51;;;;;;;3.67;2.40;;;;;;;17.08;91.03;99526.97;5052670;28;20657;-77
2021/08/02 01:54:30;;;;;;;3.42;2.40;;;;;;;16.96;90.99;99518.25;5053003;28;20479;-77
2021/08/02 01:57:06;;;;;;;5.22;2.80;;;;;;;17.00;91.67;99549.31;5052712;28;20128;-74
2021/08/02 01:59:39;;;;;;;4.30;2.60;;;;;;;17.01;91.27;99550.16;5052969;28;20044;-74
2021/08/02 02:02:12;;;;;;;6.30;2.75;;;;;;;17.00;91.27;99546.59;5052849;28;20523;-74
2021/08/02 02:04:53;;;;;;;3.92;2.50;;;;;;;16.96;91.80;99552.44;5052494;28;20045;-75
2021/08/02 02:07:25;;;;;;;4.30;2.65;;;;;;;17.02;91.47;99558.06;5052854;28;20045;-74
2021/08/02 02:09:58;;;;;;;3.83;2.60;;;;;;;16.92;91.69;99557.28;5052468;28;20041;-74
2021/08/02 02:12:27;;;;;;;6.30;2.85;;;;;;;16.92;91.68;99561.81;5052714;28;20052;-74
2021/08/02 02:14:58;;;;;;;4.57;2.88;;;;;;;16.92;92.01;99568.06;5051417;28;20132;-74
2021/08/02 02:17:27;;;;;;;7.53;2.72;;;;;;;17.00;91.50;99572.69;5052858;28;20052;-74
2021/08/02 02:19:58;;;;;;;4.60;2.58;;;;;;;16.99;91.24;99566.47;5052467;28;20048;-74
2021/08/02 02:22:27;;;;;;;5.68;3.20;;;;;;;17.02;91.28;99576.94;5052782;28;20102;-74
2021/08/02 02:24:58;;;;;;;4.57;3.03;;;;;;;16.97;90.98;99581.91;5052322;28;20044;-74
2021/08/02 02:27:29;;;;;;;6.45;2.75;;;;;;;17.05;90.78;99573.94;5052748;28;20057;-75
2021/08/02 02:29:57;;;;;;;5.50;2.95;;;;;;;16.99;90.86;99582.63;5051160;28;20057;-76
2021/08/02 02:32:28;;;;;;;4.07;2.60;;;;;;;17.07;90.62;99582.69;5052673;28;20455;-76
2021/08/02 02:34:56;;;;;;;4.18;2.78;;;;;;;17.00;91.01;99592.41;5052323;28;20132;-77
2021/08/02 02:37:26;;;;;;;5.10;2.72;;;;;;;16.97;90.98;99595.38;5052439;28;20095;-78
2021/08/02 02:39:54;;;;;;;3.45;2.55;;;;;;;17.03;90.70;99605.56;5052236;28;20037;-78
2021/08/02 02:42:25;;;;;;;6.53;2.80;;;;;;;16.88;91.46;99601.66;5052494;28;20041;-78
2021/08/02 02:44:54;;;;;;;5.95;2.90;;;;;;;17.03;90.42;99610.97;5052035;28;20049;-78
2021/08/02 02:47:23;;;;;;;6.07;2.80;;;;;;;16.90;91.15;99613.16;5051494;28;20431;-73
2021/08/02 02:49:52;;;;;;;5.43;3.08;;;;;;;17.02;90.12;99611.97;5054895;28;20169;-74
2021/08/02 02:52:24;;;;;;;5.95;2.97;;;;;;;16.87;91.01;99616.97;5056628;28;20094;-74
2021/08/02 02:54:55;;;;;;;6.50;3.30;;;;;;;16.85;90.97;99608.19;5056147;28;20045;-74
2021/08/02 02:57:24;;;;;;;5.10;3.28;;;;;;;16.87;90.96;99619.66;5056507;28;20127;-74
2021/08/02 02:59:52;;;;;;;4.20;2.95;;;;;;;16.85;90.78;99627.03;5055833;28;20040;-75
2021/08/02 03:02:23;;;;;;;4.57;3.13;;;;;;;16.86;90.99;99630.59;5056033;28;20040;-77
2021/08/02 03:04:58;;;;;;;7.68;3.30;;;;;;;16.94;90.94;99635.25;5056086;28;20079;-77
2021/08/02 03:07:30;;;;;;;5.53;3.17;;;;;;;16.84;91.46;99646.06;5056270;28;20041;-76
2021/08/02 03:10:01;;;;;;;6.78;3.50;;;;;;;16.85;90.95;99645.91;5055830;28;20049;-74
2021/08/02 03:12:33;;;;;;;5.90;2.85;;;;;;;16.84;91.11;99654.13;5056590;28;20045;-75
2021/08/02 03:15:03;;;;;;;6.03;3.42;;;;;;;16.83;91.20;99668.59;5055781;28;20049;-75
2021/08/02 03:17:32;;;;;;;8.50;3.67;;;;;;;16.86;90.96;99649.44;5056069;28;20052;-75
2021/08/02 03:20:00;;;;;;;5.18;3.53;;;;;;;16.87;91.26;99654.69;5055579;28;20048;-75
2021/08/02 03:22:34;;;;;;;7.60;3.38;;;;;;;16.93;91.41;99661.34;5056046;28;20376;-74
2021/08/02 03:25:10;;;;;;;5.70;3.55;;;;;;;16.86;91.54;99668.31;5055358;28;20072;-77
2021/08/02 03:27:44;;;;;;;5.75;3.40;;;;;;;16.87;91.89;99686.16;5055585;28;20495;-77
2021/08/02 03:30:14;;;;;;;5.93;3.50;;;;;;;16.85;91.92;99669.28;5055751;28;20514;-75
2021/08/02 03:32:46;;;;;;;7.68;4.40;;;;;;;16.87;92.09;99680.75;5055649;28;20139;-75
2021/08/02 03:35:16;;;;;;;6.55;3.78;;;;;;;16.93;91.85;99685.59;5055529;28;20045;-75
2021/08/02 03:37:46;;;;;;;4.95;3.83;;;;;;;16.94;91.62;99670.25;5055505;28;20050;-76
2021/08/02 03:40:17;;;;;;;5.80;4.07;;;;;;;17.01;91.18;99664.16;5055424;28;20072;-76
2021/08/02 03:42:48;;;;;;;7.15;4.30;;;;;;;16.94;91.01;99652.25;5055241;28;20053;-76
2021/08/02 03:45:19;;;;;;;6.30;4.30;;;;;;;16.92;91.95;99656.94;5055654;28;20080;-75
2021/08/02 03:47:48;;;;;;;6.40;4.38;;;;;;;16.91;92.46;99674.09;5054977;28;20045;-77
2021/08/02 03:50:16;;;;;;;7.32;4.53;;;;;;;16.94;92.43;99697.19;5055167;28;20041;-77
2021/08/02 03:52:47;;;;;;;6.72;4.30;;;;;;;16.87;92.62;99705.00;5055222;28;20041;-74
2021/08/02 03:55:16;;;;;;;6.53;4.50;;;;;;;16.91;92.82;99711.81;5055028;28;20495;-76
2021/08/02 03:57:44;;;;;;;7.20;4.68;;;;;;;16.91;92.91;99717.22;5055002;28;20045;-75
2021/08/02 04:00:15;;;;;;;8.70;4.68;;;;;;;17.06;92.24;99731.06;5054192;28;20437;-76
2021/08/02 04:02:43;;;;;;;7.57;4.47;;;;;;;17.31;90.98;99732.25;5054910;28;20095;-76
2021/08/02 04:05:13;;;;;;;5.25;4.03;;;;;;;17.40;89.84;99729.53;5055212;28;20124;-76
2021/08/02 04:07:42;;;;;;;5.32;3.85;;;;;;;17.45;89.83;99737.16;5054870;28;20041;-75
2021/08/02 04:10:11;;;;;;;7.15;4.05;;;;;;;17.55;89.71;99739.78;5054307;28;20123;-76
2021/08/02 04:12:40;;;;;;;4.80;3.58;;;;;;;17.46;89.70;99763.09;5054845;28;20140;-78
2021/08/02 04:15:11;;;;;;;6.80;4.00;;;;;;;17.72;88.88;99750.69;5054726;28;20049;-77
2021/08/02 04:17:40;;;;;;;7.55;4.07;;;;;;;18.48;84.85;99741.34;5054648;28;20052;-74
2021/08/02 04:20:10;;;;;;;5.38;3.25;;;;;;;18.35;84.57;99757.97;5054413;28;20037;-74
2021/08/02 04:22:39;;;;;;;5.38;3.03;;;;;;;18.11;85.73;99760.38;5054846;28;20127;-74
2021/08/02 04:25:09;;;;;;;6.03;3.60;;;;;;;18.19;85.39;99771.28;5054148;28;20069;-74
2021/08/02 04:27:38;;;;;;;6.97;3.80;;;;;;;18.01;86.58;99768.53;5054365;28;20049;-74
2021/08/02 04:30:07;;;;;;;5.25;3.63;;;;;;;17.89;87.03;99778.72;5054010;28;20049;-74
2021/08/02 04:32:35;;;;;;;5.43;3.55;;;;;;;18.54;83.43;99770.44;5054389;28;20047;-74
2021/08/02 04:35:06;;;;;;;7.38;3.72;;;;;;;18.68;82.19;99772.63;5054289;28;20048;-74
2021/08/02 04:37:34;;;;;;;7.25;3.08;;;;;;;18.67;81.49;99773.63;5054493;28;20571;-76
2021/08/02 04:40:02;;;;;;;4.32;3.00;;;;;;;18.53;82.55;99783.13;5053815;28;20044;-75
2021/08/02 04:42:34;;;;;;;5.82;3.40;;;;;;;18.24;83.88;99780.63;5054086;28;20400;-76
2021/08/02 04:45:03;;;;;;;5.60;3.47;;;;;;;18.14;84.11;99781.66;5053954;28;20098;-75
2021/08/02 04:47:32;;;;;;;8.23;3.30;;;;;;;18.85;81.52;99782.56;5054061;28;20045;-75
2021/08/02 04:50:00;;;;;;;5.45;3.40;;;;;;;18.76;81.62;99786.22;5053781;28;20047;-75
2021/08/02 04:52:29;;;;;;;5.75;2.85;;;;;;;19.11;80.25;99776.34;5054092;28;20044;-75
2021/08/02 04:54:58;;;;;;;4.82;3.53;;;;;;;19.00;80.17;99785.53;5053459;28;20559;-73
2021/08/02 04:57:26;;;;;;;4.95;3.38;;;;;;;18.84;81.08;99775.47;5053971;28;20106;-70
2021/08/02 04:59:54;;;;;;;5.93;3.78;;;;;;;19.41;78.99;99773.16;5053438;28;20128;-73
2021/08/02 05:02:22;;;;;;;5.78;3.47;;;;;;;19.19;79.39;99773.69;5053695;28;20049;-72
2021/08/02 05:04:51;;;;;;;5.53;3.50;;;;;;;19.43;78.38;99771.13;5053764;28;20067;-75
2021/08/02 05:07:19;;;;;;;5.57;3.40;;;;;;;19.22;79.63;99778.78;5052646;28;20463;-72
2021/08/02 05:09:49;;;;;;;4.78;3.10;;;;;;;19.70;77.45;99783.66;5053828;28;20056;-72
2021/08/02 05:12:17;;;;;;;6.53;3.25;;;;;;;19.95;75.73;99783.75;5052719;28;20095;-72
2021/08/02 05:14:50;;;;;;;4.40;3.22;;;;;;;20.52;73.88;99782.06;5053689;28;20102;-72
2021/08/02 05:17:18;;;;;;;4.78;3.22;;;;;;;20.93;72.09;99781.22;5053565;28;20041;-72
2021/08/02 05:19:47;;;;;;;5.40;3.00;;;;;;;21.03;71.46;99785.44;5053319;28;20539;-74
2021/08/02 05:22:15;;;;;;;4.57;3.35;;;;;;;21.28;69.94;99788.16;5053043;28;20055;-75
2021/08/02 05:24:43;;;;;;;5.82;3.50;;;;;;;21.50;69.49;99794.72;5053432;28;20102;-72
2021/08/02 05:27:13;;;;;;;4.78;3.13;;;;;;;21.89;68.12;99792.03;5053092;28;20053;-72
2021/08/02 05:29:41;;;;;;;4.47;3.00;;;;;;;22.04;66.91;99795.72;5053385;28;20128;-70
2021/08/02 05:32:09;;;;;;;5.40;3.08;;;;;;;21.89;67.08;99795.59;5053087;28;20446;-71
2021/08/02 05:34:40;;;;;;;5.18;3.17;;;;;;;22.05;67.41;99804.72;5053220;28;20040;-71
2021/08/02 05:37:09;;;;;;;4.55;3.42;;;;;;;22.27;65.81;99807.50;5053184;28;20072;-71
2021/08/02 05:39:37;;;;;;;6.75;3.33;;;;;;;21.83;67.10;99809.91;5053268;28;20127;-70
2021/08/02 05:42:06;;;;;;;7.40;3.33;;;;;;;21.97;67.08;99808.31;5052990;28;20048;-71
2021/08/02 05:44:36;;;;;;;4.75;3.20;;;;;;;21.86;67.52;99805.97;5053238;28;20045;-70
2021/08/02 05:47:06;;;;;;;4.68;3.30;;;;;;;21.92;66.44;99817.00;5053177;28;20041;-70
2021/08/02 05:49:34;;;;;;;6.38;3.50;;;;;;;22.31;66.18;99815.31;5053341;28;20124;-70
2021/08/02 05:52:03;;;;;;;5.13;3.35;;;;;;;22.18;65.49;99815.88;5052698;28;20049;-70
2021/08/02 05:54:31;;;;;;;5.30;3.15;;;;;;;21.80;66.76;99821.09;5053045;28;20045;-70
2021/08/02 05:56:59;;;;;;;7.00;3.08;;;;;;;22.53;65.27;99825.38;5052773;28;20048;-70
2021/08/02 05:59:27;;;;;;;5.13;3.00;;;;;;;22.51;65.14;99832.88;5052940;28;20045;-70
2021/08/02 06:01:59;;;;;;;4.32;3.00;;;;;;;22.62;64.65;99829.72;5052603;28;20087;-70
2021/08/02 06:04:28;;;;;;;5.80;3.33;;;;;;;22.46;64.05;99829.81;5053193;28;20476;-69
2021/08/02 06:06:56;;;;;;;6.60;3.08;;;;;;;22.16;65.15;99835.06;5052478;28;20044;-70
2021/08/02 06:09:24;;;;;;;5.65;3.15;;;;;;;22.63;64.00;99816.97;5052716;28;20095;-74
2021/08/02 06:11:52;;;;;;;5.72;3.00;;;;;;;22.21;65.34;99823.69;5052943;28;20055;-74
2021/08/02 06:14:20;;;;;;;5.57;2.95;;;;;;;22.37;64.99;99830.88;5052931;28;20439;-74
2021/08/02 06:16:50;;;;;;;4.40;2.58;;;;;;;22.00;66.72;99835.09;5053048;28;20095;-74
2021/08/02 06:19:19;;;;;;;4.78;2.67;;;;;;;22.06;65.58;99818.13;5052707;28;20037;-70
2021/08/02 06:21:48;;;;;;;4.65;2.35;;;;;;;22.00;65.25;99835.09;5052776;28;20407;-69
2021/08/02 06:24:16;;;;;;;6.47;2.80;;;;;;;22.00;66.55;99835.09;5054295;28;20049;-69
2021/08/02 06:26:44;;;;;;;7.05;2.92;;;;;;;22.71;64.32;99830.53;5056513;28;20061;-69
2021/08/02 06:29:14;;;;;;;4.60;2.58;;;;;;;22.77;62.78;99832.50;5056671;28;20446;-69
2021/08/02 06:31:43;;;;;;;5.18;2.65;;;;;;;22.74;63.43;99850.03;5056843;28;20151;-69
2021/08/02 06:34:11;;;;;;;3.88;2.42;;;;;;;22.50;63.09;99850.19;5056376;28;20049;-69
2021/08/02 06:36:41;;;;;;;4.28;2.42;;;;;;;22.91;62.23;99849.94;5055656;28;20472;-70
2021/08/02 06:39:09;;;;;;;4.50;2.30;;;;;;;23.60;60.16;99846.13;5056311;28;20056;-71
2021/08/02 06:41:39;;;;;;;5.70;2.25;;;;;;;23.64;59.75;99852.03;5056691;28;20045;-70
2021/08/02 06:44:07;;;;;;;4.00;2.40;;;;;;;23.59;58.84;99849.03;5056188;28;20041;-71
2021/08/02 06:46:35;;;;;;;3.55;2.50;;;;;;;23.59;58.63;99859.94;5056490;28;20045;-70
2021/08/02 06:49:04;;;;;;;5.15;2.33;;;;;;;23.99;58.86;99850.44;5056076;28;20041;-71
2021/08/02 06:51:32;;;;;;;3.25;2.25;;;;;;;23.73;59.38;99861.81;5057224;28;20442;-71
2021/08/02 06:54:02;;;;;;;3.95;2.40;;;;;;;23.88;58.46;99849.06;5056182;28;20056;-70
2021/08/02 06:56:30;;;;;;;5.35;2.33;;;;;;;23.55;59.67;99853.13;5056450;28;20041;-70
2021/08/02 06:58:58;;;;;;;4.15;2.28;;;;;;;23.77;58.19;99868.59;5055961;28;20049;-73
2021/08/02 07:01:27;;;;;;;4.47;2.38;;;;;;;23.48;60.31;99863.06;5055563;28;20083;-74
2021/08/02 07:03:55;;;;;;;3.72;2.13;;;;;;;22.95;60.76;99864.88;5055818;28;20049;-73
2021/08/02 07:06:23;;;;;;;3.40;2.30;;;;;;;22.07;64.10;99876.88;5056094;28;20037;-73
2021/08/02 07:08:52;;;;;;;3.67;2.47;;;;;;;22.17;62.72;99885.66;5056060;28;20055;-73
2021/08/02 07:11:21;;;;;;;4.50;2.42;;;;;;;21.99;64.36;99880.41;5056040;28;20041;-70
2021/08/02 07:13:49;;;;;;;7.28;2.50;;;;;;;22.07;63.64;99878.75;5056326;28;20045;-70
2021/08/02 07:16:18;;;;;;;5.30;2.50;;;;;;;21.98;64.52;99883.31;5055550;28;20068;-69
2021/08/02 07:18:46;;;;;;;9.38;2.95;;;;;;;22.03;63.90;99875.50;5055815;28;20047;-70
2021/08/02 07:21:14;;;;;;;3.40;2.20;;;;;;;21.80;65.29;99869.09;5055741;28;20045;-70
2021/08/02 07:23:45;;;;;;;4.13;2.30;;;;;;;21.39;65.58;99869.19;5055697;28;20041;-67
2021/08/02 07:26:14;;;;;;;4.50;2.30;;;;;;;21.45;65.99;99879.38;5055098;28;20052;-71
2021/08/02 07:28:44;;;;;;;4.20;2.33;;;;;;;21.26;66.43;99869.72;5055680;28;20041;-71
2021/08/02 07:31:12;;;;;;;3.63;2.47;;;;;;;21.55;66.16;99860.19;5055039;28;20053;-71
2021/08/02 07:33:40;;;;;;;6.00;2.83;;;;;;;21.74;65.35;99872.53;5055909;28;20076;-71
2021/08/02 07:36:09;;;;;;;3.83;2.60;;;;;;;21.71;64.39;99868.28;5054422;28;20064;-71
2021/08/02 07:38:38;;;;;;;4.50;2.65;;;;;;;21.57;66.57;99867.13;5055743;28;20037;-71
2021/08/02 07:41:06;;;;;;;6.10;2.50;;;;;;;21.58;66.00;99874.25;5055197;28;20033;-73
2021/08/02 07:43:34;;;;;;;4.20;2.30;;;;;;;21.56;65.85;99870.88;5055489;28;20036;-72
2021/08/02 07:46:04;;;;;;;4.43;2.25;;;;;;;21.71;64.64;99862.84;5055737;28;20466;-73
2021/08/02 07:48:33;;;;;;;5.03;2.55;;;;;;;21.59;64.34;99867.81;5056085;28;20048;-72
2021/08/02 07:51:01;;;;;;;3.30;2.08;;;;;;;21.64;63.91;99873.56;5055374;28;20041;-72
2021/08/02 07:53:29;;;;;;;3.60;2.20;;;;;;;21.66;63.24;99879.66;5055494;28;20083;-72
2021/08/02 07:55:58;;;;;;;3.83;2.30;;;;;;;21.69;63.12;99887.47;5055282;28;20048;-72
2021/08/02 07:58:26;;;;;;;3.60;2.05;;;;;;;21.56;63.63;99884.44;5055016;28;20044;-72
2021/08/02 08:00:54;;;;;;;5.43;2.35;;;;;;;21.62;64.67;99886.47;5055255;28;20090;-72
2021/08/02 08:03:26;;;;;;;4.15;2.58;;;;;;;21.62;64.01;99885.63;5055074;28;20061;-72
2021/08/02 08:05:57;;;;;;;3.75;2.40;;;;;;;21.74;65.07;99894.25;5055228;28;20041;-72
2021/08/02 08:08:25;;;;;;;6.88;2.90;;;;;;;21.79;64.48;99891.84;5054879;28;20430;-72
2021/08/02 08:10:54;;;;;;;4.88;2.25;;;;;;;22.06;64.30;99902.31;5054907;28;20041;-72
2021/08/02 08:13:22;;;;;;;5.50;2.30;;;;;;;21.91;64.25;99902.19;5054902;28;20472;-72
2021/08/02 08:15:50;;;;;;;4.20;2.40;;;;;;;21.97;63.32;99906.06;5054904;28;20116;-72
2021/08/02 08:18:19;;;;;;;3.70;2.20;;;;;;;21.99;64.39;99912.16;5054757;28;20033;-72
2021/08/02 08:20:51;;;;;;;4.43;2.60;;;;;;;22.03;63.55;99913.53;5054959;28;20041;-72
2021/08/02 08:23:19;;;;;;;4.20;2.70;;;;;;;21.94;64.35;99906.41;5054597;28;20485;-72
2021/08/02 08:25:47;;;;;;;3.92;2.70;;;;;;;21.83;63.89;99914.94;5054494;28;20541;-72
2021/08/02 08:28:16;;;;;;;3.88;2.50;;;;;;;21.66;63.17;99904.09;5054741;28;20033;-72
2021/08/02 08:30:44;;;;;;;3.50;2.00;;;;;;;21.89;62.51;99915.06;5054779;28;20434;-72
2021/08/02 08:33:13;;;;;;;5.15;2.30;;;;;;;21.87;63.61;99919.00;5054511;28;20368;-72
2021/08/02 08:35:41;;;;;;;5.18;2.33;;;;;;;21.86;63.21;99920.00;5053435;28;20049;-72
2021/08/02 08:38:11;;;;;;;4.75;2.20;;;;;;;21.99;63.01;99920.31;5054254;28;20099;-72
2021/08/02 08:40:39;;;;;;;3.72;2.13;;;;;;;21.97;61.94;99909.63;5054586;28;20095;-72
2021/08/02 08:43:07;;;;;;;2.97;1.80;;;;;;;21.89;61.69;99920.50;5054192;28;20048;-72
2021/08/02 08:45:36;;;;;;;3.47;2.08;;;;;;;21.84;62.56;99898.47;5054503;28;20440;-72
2021/08/02 08:48:07;;;;;;;4.78;2.15;;;;;;;21.95;61.66;99908.97;5053132;28;20051;-72
2021/08/02 08:50:38;;;;;;;3.72;2.17;;;;;;;22.06;61.22;99915.03;5054529;28;20045;-72
2021/08/02 08:53:10;;;;;;;5.00;2.40;;;;;;;22.20;61.41;99907.06;5054078;28;20075;-73
2021/08/02 08:55:43;;;;;;;3.70;2.27;;;;;;;22.42;60.64;99918.16;5054419;28;20472;-72
2021/08/02 08:58:12;;;;;;;3.37;2.20;;;;;;;22.37;59.72;99921.41;5054010;28;20041;-72
2021/08/02 09:00:43;;;;;;;3.22;1.92;;;;;;;22.41;59.35;99921.91;5054054;28;20484;-72
2021/08/02 09:03:13;;;;;;;4.05;2.10;;;;;;;22.44;59.94;99919.69;5054001;28;20032;-72
2021/08/02 09:05:46;;;;;;;4.78;2.40;;;;;;;22.62;60.52;99919.44;5054280;28;20067;-72
2021/08/02 09:08:22;;;;;;;5.00;2.30;;;;;;;22.38;61.02;99933.13;5053797;28;20418;-72
2021/08/02 09:10:58;;;;;;;4.47;2.08;;;;;;;22.35;60.30;99936.19;5054010;28;20078;-72
2021/08/02 09:13:31;;;;;;;3.67;2.25;;;;;;;22.47;60.36;99929.34;5053610;28;20045;-72
2021/08/02 09:16:11;;;;;;;4.72;2.30;;;;;;;22.66;60.87;99933.50;5053727;28;20119;-72
2021/08/02 09:18:40;;;;;;;4.30;2.20;;;;;;;22.66;59.97;99933.50;5054336;28;20072;-72
2021/08/02 09:21:08;;;;;;;4.30;2.30;;;;;;;22.77;58.89;99920.34;5053587;28;20040;-74
2021/08/02 09:23:47;;;;;;;2.80;1.75;;;;;;;22.64;58.67;99932.84;5053533;28;20033;-72
2021/08/02 09:26:17;;;;;;;4.57;2.08;;;;;;;22.54;59.29;99936.63;5053349;28;20079;-72
2021/08/02 09:28:53;;;;;;;5.10;2.28;;;;;;;22.56;59.75;99929.13;5053789;28;20360;-72
2021/08/02 09:31:34;;;;;;;2.40;1.50;;;;;;;22.83;58.93;99930.53;5053348;28;20098;-73
2021/08/02 09:34:05;;;;;;;3.30;1.90;;;;;;;22.85;57.81;99931.22;5053508;28;20437;-73
2021/08/02 09:36:38;;;;;;;3.63;2.15;;;;;;;22.83;58.30;99946.00;5052295;28;20060;-72
2021/08/02 09:39:08;;;;;;;4.20;2.00;;;;;;;22.83;57.49;99946.00;5053697;28;20036;-72
2021/08/02 09:41:38;;;;;;;3.67;2.13;;;;;;;22.83;58.77;99941.41;5053465;28;20064;-72
2021/08/02 09:44:07;;;;;;;2.97;1.98;;;;;;;22.78;57.87;99951.13;5053194;28;20036;-73
2021/08/02 09:46:35;;;;;;;3.00;2.00;;;;;;;23.02;57.91;99945.56;5053242;28;20041;-72
2021/08/02 09:49:05;;;;;;;3.53;2.00;;;;;;;22.86;57.04;99961.97;5053510;28;20467;-72
2021/08/02 09:51:42;;;;;;;2.65;1.90;;;;;;;22.97;58.61;99952.56;5053140;28;20040;-72
2021/08/02 09:54:10;;;;;;;3.30;1.90;;;;;;;22.99;58.08;99956.81;5052970;28;20392;-73
2021/08/02 09:56:40;;;;;;;4.53;2.00;;;;;;;23.26;57.39;99952.72;5052030;28;20071;-72
2021/08/02 09:59:10;;;;;;;3.00;2.03;;;;;;;23.24;56.90;99965.63;5052451;28;20472;-72
2021/08/02 10:01:43;;;;;;;3.50;2.05;;;;;;;23.11;57.57;99949.91;5053427;28;20047;-72
2021/08/02 10:04:12;;;;;;;3.63;2.20;;;;;;;23.31;59.31;99947.56;5052682;28;20041;-72
2021/08/02 10:06:42;;;;;;;4.28;2.10;;;;;;;23.30;59.03;99937.72;5053224;28;20060;-72
2021/08/02 10:09:13;;;;;;;3.78;2.05;;;;;;;23.55;58.91;99940.25;5052575;28;20040;-73
2021/08/02 10:11:42;;;;;;;3.40;1.83;;;;;;;23.46;57.93;99933.19;5052902;28;20068;-72
2021/08/02 10:14:13;;;;;;;3.47;2.10;;;;;;;23.59;58.10;99938.88;5052876;28;20048;-75
2021/08/02 10:16:45;;;;;;;2.92;1.95;;;;;;;23.73;57.60;99932.59;5053189;28;20033;-72
2021/08/02 10:19:17;;;;;;;3.35;1.90;;;;;;;23.66;57.86;99926.22;5052561;28;20120;-72
2021/08/02 10:21:48;;;;;;;4.05;1.92;;;;;;;23.80;56.34;99914.50;5052956;28;20076;-72
2021/08/02 10:24:17;;;;;;;2.88;1.80;;;;;;;23.50;55.35;99926.34;5052426;28;20494;-72
2021/08/02 10:26:57;;;;;;;4.07;2.25;;;;;;;23.53;54.94;99925.94;5052735;28;20052;-71
2021/08/02 10:29:26;;;;;;;3.28;1.90;;;;;;;23.50;54.73;99929.91;5052459;28;20124;-72
2021/08/02 10:31:55;;;;;;;3.10;2.00;;;;;;;23.34;56.00;99927.31;5052852;28;20045;-71
2021/08/02 10:34:25;;;;;;;3.97;2.03;;;;;;;23.31;57.49;99930.41;5052758;28;20041;-73
2021/08/02 10:36:58;;;;;;;3.83;1.98;;;;;;;23.41;58.45;99926.41;5052727;28;20084;-72
2021/08/02 10:39:28;;;;;;;5.47;2.00;;;;;;;23.35;55.22;99939.88;5052478;28;20094;-72
2021/08/02 10:42:09;;;;;;;4.90;1.70;;;;;;;23.52;54.57;99924.25;5053248;28;20068;-72
2021/08/02 10:44:57;;;;;;;2.70;1.60;;;;;;;23.77;55.17;99924.94;5052683;28;20045;-72
2021/08/02 10:47:37;;;;;;;3.28;2.00;;;;;;;23.84;55.10;99918.56;5052342;28;20068;-73
2021/08/02 10:50:07;;;;;;;3.67;1.80;;;;;;;23.83;55.95;99910.53;5052839;28;20064;-72
2021/08/02 10:52:36;;;;;;;4.10;1.90;;;;;;;23.80;55.54;99924.53;5052188;28;20373;-72
2021/08/02 10:55:14;;;;;;;2.97;1.90;;;;;;;24.01;55.66;99918.38;5052851;28;20120;-73
2021/08/02 10:57:44;;;;;;;5.07;1.90;;;;;;;24.11;56.33;99929.81;5052661;28;20040;-72
2021/08/02 11:00:20;;;;;;;2.63;1.60;;;;;;;24.11;54.72;99935.28;5052703;28;20041;-76
2021/08/02 11:02:51;;;;;;;2.78;1.65;;;;;;;23.93;54.26;99931.06;5051222;28;20051;-72
2021/08/02 11:05:20;;;;;;;2.30;1.70;;;;;;;24.12;53.54;99931.50;5052319;28;20045;-72
2021/08/02 11:07:49;;;;;;;2.80;1.60;;;;;;;24.22;55.10;99938.41;5052525;28;20041;-72
2021/08/02 11:10:18;;;;;;;4.10;1.60;;;;;;;24.31;51.88;99933.72;5054163;28;20098;-72
2021/08/02 11:12:48;;;;;;;3.65;1.80;;;;;;;24.22;52.57;99937.53;5056360;28;20056;-71
2021/08/02 11:15:16;;;;;;;2.88;1.80;;;;;;;24.12;53.79;99935.09;5056201;28;20064;-72
2021/08/02 11:17:52;;;;;;;3.15;1.60;;;;;;;24.12;52.13;99942.41;5056058;28;20047;-72
2021/08/02 11:20:21;;;;;;;2.53;1.50;;;;;;;23.94;51.51;99942.81;5055735;28;20033;-72
2021/08/02 11:22:54;;;;;;;4.00;1.67;;;;;;;24.18;52.80;99944.41;5055550;28;20572;-73
2021/08/02 11:25:24;;;;;;;4.70;1.77;;;;;;;24.26;51.34;99944.31;5055646;28;20056;-72
2021/08/02 11:27:56;;;;;;;2.50;1.60;;;;;;;24.18;52.25;99938.94;5056048;28;20053;-72
2021/08/02 11:30:25;;;;;;;2.95;1.80;;;;;;;24.16;53.42;99930.97;5055884;28;20037;-72
2021/08/02 11:32:54;;;;;;;3.53;1.90;;;;;;;24.32;51.53;99948.19;5055976;28;20033;-70
2021/08/02 11:35:32;;;;;;;2.83;1.80;;;;;;;24.30;51.76;99942.88;5055339;28;20090;-72
2021/08/02 11:38:01;;;;;;;5.10;1.83;;;;;;;24.50;51.89;99944.03;5055654;28;20510;-72
2021/08/02 11:40:35;;;;;;;2.63;1.65;;;;;;;24.65;52.86;99938.56;5055334;28;20064;-74
2021/08/02 11:43:05;;;;;;;2.67;1.60;;;;;;;24.76;51.86;99956.31;5055565;28;20119;-72
2021/08/02 11:45:34;;;;;;;2.25;1.48;;;;;;;24.83;49.07;99946.34;5055478;28;20044;-72
2021/08/02 11:48:07;;;;;;;2.80;1.60;;;;;;;24.94;46.86;99948.56;5055653;28;20032;-72
2021/08/02 11:50:36;;;;;;;2.95;1.30;;;;;;;24.84;47.26;99956.22;5055261;28;20064;-71